createdAt,value
2022-11-07T00:00:27.782Z,22.23
2022-11-07T00:02:54.304Z,24.67
2022-11-07T00:05:20.756Z,24.05
2022-11-07T00:07:47.149Z,24.67
2022-11-07T00:10:13.559Z,24.23
2022-11-07T00:12:39.952Z,24.40
2022-11-07T00:15:06.610Z,20.02
2022-11-07T00:17:33.011Z,23.60
2022-11-07T00:19:59.396Z,21.15
2022-11-07T00:22:25.964Z,20.92
2022-11-07T00:24:52.347Z,21.00
2022-11-07T00:27:18.804Z,21.90
2022-11-07T00:29:45.262Z,18.33
2022-11-07T00:32:11.726Z,21.42
2022-11-07T00:34:38.138Z,24.38
2022-11-07T00:37:04.528Z,20.55
2022-11-07T00:39:30.933Z,20.42
2022-11-07T00:41:57.389Z,26.88
2022-11-07T00:44:24.735Z,22.17
2022-11-07T00:46:51.130Z,22.92
2022-11-07T00:49:17.757Z,26.15
2022-11-07T00:51:44.130Z,19.92
2022-11-07T00:54:10.648Z,18.13
2022-11-07T00:56:37.039Z,18.70
2022-11-07T00:59:03.437Z,20.55
2022-11-07T01:01:32.722Z,22.98
2022-11-07T01:04:17.920Z,24.02
2022-11-07T01:06:45.480Z,21.27
2022-11-07T01:09:15.356Z,20.25
2022-11-07T01:11:42.331Z,20.33
2022-11-07T01:14:09.897Z,20.00
2022-11-07T01:16:38.786Z,19.52
2022-11-07T01:19:06.774Z,19.95
2022-11-07T01:21:33.391Z,20.23
2022-11-07T01:24:00.311Z,18.73
2022-11-07T01:26:27.172Z,16.25
2022-11-07T01:28:53.561Z,21.10
2022-11-07T01:31:20.105Z,20.08
2022-11-07T01:33:46.513Z,19.38
2022-11-07T01:36:15.784Z,18.95
2022-11-07T01:38:46.235Z,19.52
2022-11-07T01:41:22.314Z,20.20
2022-11-07T01:44:23.918Z,20.33
2022-11-07T01:46:52.314Z,17.55
2022-11-07T01:49:26.223Z,17.95
2022-11-07T01:52:04.159Z,19.38
2022-11-07T01:54:35.521Z,18.88
2022-11-07T01:57:07.616Z,16.13
2022-11-07T01:59:36.941Z,19.10
2022-11-07T02:02:04.035Z,21.40
2022-11-07T02:04:31.223Z,19.15
2022-11-07T02:07:04.417Z,18.75
2022-11-07T02:09:31.352Z,17.27
2022-11-07T02:12:00.950Z,17.55
2022-11-07T02:14:28.464Z,21.17
2022-11-07T02:16:55.157Z,17.85
2022-11-07T02:19:33.138Z,17.25
2022-11-07T02:22:04.341Z,19.10
2022-11-07T02:24:34.829Z,19.10
2022-11-07T02:27:06.102Z,17.10
2022-11-07T02:29:35.612Z,16.45
2022-11-07T02:32:08.103Z,18.38
2022-11-07T02:34:35.389Z,18.95
2022-11-07T02:37:04.831Z,20.27
2022-11-07T02:39:31.434Z,16.52
2022-11-07T02:42:00.837Z,15.43
2022-11-07T02:44:29.484Z,17.10
2022-11-07T02:46:56.543Z,17.38
2022-11-07T02:49:22.982Z,16.35
2022-11-07T02:51:49.357Z,18.27
2022-11-07T02:54:15.746Z,17.45
2022-11-07T02:56:42.113Z,17.80
2022-11-07T02:59:08.502Z,18.10
2022-11-07T03:01:35.080Z,15.93
2022-11-07T03:04:01.553Z,17.65
2022-11-07T03:06:27.950Z,18.10
2022-11-07T03:08:54.337Z,16.67
2022-11-07T03:11:20.754Z,16.80
2022-11-07T03:13:48.408Z,17.83
2022-11-07T03:16:16.830Z,16.13
2022-11-07T03:18:43.448Z,15.48
2022-11-07T03:21:09.849Z,17.10
2022-11-07T03:23:36.531Z,15.32
2022-11-07T03:26:03.633Z,15.32
2022-11-07T03:28:30.100Z,15.98
2022-11-07T03:31:00.796Z,18.73
2022-11-07T03:33:28.853Z,16.02
2022-11-07T03:35:55.240Z,13.32
2022-11-07T03:38:21.658Z,14.13
2022-11-07T03:40:48.300Z,13.40
2022-11-07T03:43:15.073Z,14.20
2022-11-07T03:45:41.769Z,13.00
2022-11-07T03:48:08.169Z,13.85
2022-11-07T03:50:34.605Z,13.52
2022-11-07T03:53:01.005Z,14.68
2022-11-07T03:55:27.394Z,11.25
2022-11-07T03:57:53.780Z,16.02
2022-11-07T04:00:20.228Z,15.13
2022-11-07T04:02:46.807Z,13.50
2022-11-07T04:05:13.360Z,12.32
2022-11-07T04:07:39.749Z,13.52
2022-11-07T04:10:06.615Z,16.48
2022-11-07T04:13:08.413Z,15.15
2022-11-07T04:15:53.648Z,11.20
2022-11-07T04:18:20.057Z,12.82
2022-11-07T04:20:46.439Z,12.27
2022-11-07T04:23:13.110Z,12.90
2022-11-07T04:25:58.374Z,13.02
2022-11-07T04:28:24.786Z,15.23
2022-11-07T04:30:51.295Z,14.45
2022-11-07T04:33:17.898Z,11.60
2022-11-07T04:35:44.414Z,14.65
2022-11-07T04:38:10.826Z,10.23
2022-11-07T04:40:37.207Z,14.00
2022-11-07T04:43:08.962Z,10.13
2022-11-07T04:45:37.003Z,12.65
2022-11-07T04:48:03.835Z,10.38
2022-11-07T04:50:30.385Z,11.82
2022-11-07T04:52:56.913Z,10.57
2022-11-07T04:55:26.787Z,10.48
2022-11-07T04:57:53.535Z,11.60
2022-11-07T05:00:21.044Z,10.82
2022-11-07T05:02:49.308Z,8.35
2022-11-07T05:05:17.461Z,12.93
2022-11-07T05:07:44.448Z,9.65
2022-11-07T05:10:19.735Z,16.70
2022-11-07T05:12:46.186Z,11.32
2022-11-07T05:15:12.817Z,8.75
2022-11-07T05:17:39.303Z,10.25
2022-11-07T05:20:06.149Z,11.15
2022-11-07T05:22:56.011Z,10.50
2022-11-07T05:25:22.757Z,7.82
2022-11-07T05:27:49.144Z,10.82
2022-11-07T05:30:15.556Z,10.30
2022-11-07T05:32:42.171Z,14.15
2022-11-07T05:35:08.983Z,13.07
2022-11-07T05:37:35.382Z,9.23
2022-11-07T05:40:01.779Z,10.43
2022-11-07T05:42:28.270Z,8.98
2022-11-07T05:44:54.642Z,9.20
2022-11-07T05:47:21.038Z,11.00
2022-11-07T05:49:47.426Z,9.45
2022-11-07T05:52:13.843Z,12.07
2022-11-07T05:54:40.237Z,8.18
2022-11-07T05:57:06.638Z,7.53
2022-11-07T05:59:33.029Z,10.48
2022-11-07T06:01:59.542Z,8.57
2022-11-07T06:04:26.036Z,9.40
2022-11-07T06:06:52.440Z,6.60
2022-11-07T06:09:18.832Z,7.55
2022-11-07T06:11:45.230Z,10.88
2022-11-07T06:14:11.634Z,7.80
2022-11-07T06:16:38.017Z,11.00
2022-11-07T06:19:04.448Z,7.55
2022-11-07T06:21:31.218Z,6.57
2022-11-07T06:23:58.028Z,8.20
2022-11-07T06:26:24.408Z,6.40
2022-11-07T06:28:50.793Z,7.15
2022-11-07T06:31:17.202Z,8.30
2022-11-07T06:33:43.602Z,9.02
2022-11-07T06:36:12.319Z,6.00
2022-11-07T06:38:39.653Z,6.72
2022-11-07T06:41:14.035Z,7.93
2022-11-07T06:43:41.061Z,6.50
2022-11-07T06:46:10.608Z,6.90
2022-11-07T06:48:37.572Z,7.65
2022-11-07T06:51:05.784Z,6.60
2022-11-07T06:53:32.765Z,7.53
2022-11-07T06:56:00.014Z,7.90
2022-11-07T06:58:26.411Z,7.28
2022-11-07T07:00:53.488Z,6.68
2022-11-07T07:03:19.933Z,5.68
2022-11-07T07:05:46.391Z,8.25
2022-11-07T07:08:14.035Z,9.02
2022-11-07T07:10:44.031Z,4.70
2022-11-07T07:13:11.129Z,7.75
2022-11-07T07:15:52.701Z,4.68
2022-11-07T07:18:19.954Z,5.53
2022-11-07T07:20:47.386Z,7.25
2022-11-07T07:23:13.857Z,5.60
2022-11-07T07:25:40.240Z,7.75
2022-11-07T07:28:06.638Z,4.60
2022-11-07T07:30:33.243Z,6.72
2022-11-07T07:32:59.696Z,6.60
2022-11-07T07:35:26.093Z,8.13
2022-11-07T07:37:52.768Z,6.57
2022-11-07T07:40:20.220Z,6.03
2022-11-07T07:42:46.636Z,5.72
2022-11-07T07:45:15.102Z,4.57
2022-11-07T07:47:42.059Z,5.13
2022-11-07T07:50:10.746Z,4.63
2022-11-07T07:52:37.491Z,5.95
2022-11-07T07:55:04.534Z,5.10
2022-11-07T07:57:30.924Z,5.85
2022-11-07T07:59:57.335Z,7.00
2022-11-07T08:02:23.816Z,6.22
2022-11-07T08:04:50.259Z,4.88
2022-11-07T08:07:16.655Z,3.85
2022-11-07T08:09:43.047Z,3.70
2022-11-07T08:12:09.475Z,6.18
2022-11-07T08:14:36.150Z,6.00
2022-11-07T08:17:02.929Z,5.28
2022-11-07T08:19:29.488Z,2.95
2022-11-07T08:21:55.880Z,3.15
2022-11-07T08:24:22.301Z,5.10
2022-11-07T08:26:48.701Z,6.10
2022-11-07T08:29:15.077Z,5.82
2022-11-07T08:31:41.477Z,6.22
2022-11-07T08:34:07.934Z,9.13
2022-11-07T08:36:34.365Z,4.32
2022-11-07T08:39:00.778Z,3.90
2022-11-07T08:41:27.198Z,4.60
2022-11-07T08:43:53.585Z,10.35
2022-11-07T08:46:19.981Z,4.05
2022-11-07T08:48:46.387Z,8.90
2022-11-07T08:51:12.785Z,6.07
2022-11-07T08:53:39.171Z,4.60
2022-11-07T08:56:08.197Z,6.78
2022-11-07T08:58:35.575Z,3.60
2022-11-07T09:01:05.933Z,5.25
2022-11-07T09:03:55.047Z,8.18
2022-11-07T09:06:20.866Z,3.53
2022-11-07T09:08:47.327Z,4.07
2022-11-07T09:11:15.745Z,6.00
2022-11-07T09:13:42.385Z,4.97
2022-11-07T09:16:08.787Z,4.88
2022-11-07T09:18:35.195Z,4.90
2022-11-07T09:21:01.591Z,5.53
2022-11-07T09:23:28.139Z,4.82
2022-11-07T09:25:54.918Z,7.05
2022-11-07T09:28:21.344Z,4.65
2022-11-07T09:30:53.417Z,7.65
2022-11-07T09:33:20.100Z,6.45
2022-11-07T09:35:47.958Z,4.50
2022-11-07T09:38:15.502Z,6.18
2022-11-07T09:40:47.590Z,4.40
2022-11-07T09:43:26.052Z,7.38
2022-11-07T09:46:15.208Z,6.85
2022-11-07T09:48:46.593Z,5.63
2022-11-07T09:51:19.000Z,6.32
2022-11-07T09:53:55.003Z,6.88
2022-11-07T09:56:21.622Z,4.68
2022-11-07T09:58:54.625Z,7.57
2022-11-07T10:01:21.878Z,3.83
2022-11-07T10:04:18.127Z,3.97
2022-11-07T10:06:49.219Z,4.63
2022-11-07T10:09:24.625Z,7.35
2022-11-07T10:12:18.794Z,5.70
2022-11-07T10:15:03.453Z,5.05
2022-11-07T10:17:49.177Z,2.45
2022-11-07T10:20:32.995Z,4.18
2022-11-07T10:23:16.062Z,5.30
2022-11-07T10:25:52.796Z,5.32
2022-11-07T10:28:20.770Z,3.33
2022-11-07T10:30:52.877Z,4.25
2022-11-07T10:33:39.728Z,4.25
2022-11-07T10:36:22.910Z,4.78
2022-11-07T10:38:49.562Z,3.10
2022-11-07T10:41:18.603Z,7.53
2022-11-07T10:43:49.714Z,3.05
2022-11-07T10:46:24.567Z,3.03
2022-11-07T10:48:59.894Z,8.60
2022-11-07T10:51:42.614Z,5.45
2022-11-07T10:54:29.494Z,6.65
2022-11-07T10:57:04.220Z,7.00
2022-11-07T10:59:36.209Z,6.75
2022-11-07T11:02:18.052Z,4.60
2022-11-07T11:04:51.093Z,7.18
2022-11-07T11:07:17.809Z,6.05
2022-11-07T11:09:56.123Z,5.20
2022-11-07T11:12:34.040Z,3.25
2022-11-07T11:15:15.620Z,4.07
2022-11-07T11:17:42.348Z,4.03
2022-11-07T11:20:44.056Z,5.72
2022-11-07T11:23:19.750Z,4.10
2022-11-07T11:25:48.731Z,4.82
2022-11-07T11:28:27.907Z,6.28
2022-11-07T11:31:02.933Z,6.13
2022-11-07T11:33:41.659Z,4.22
2022-11-07T11:36:19.314Z,7.97
2022-11-07T11:38:54.209Z,6.90
2022-11-07T11:41:41.059Z,5.10
2022-11-07T11:44:19.503Z,8.82
2022-11-07T11:46:53.987Z,7.38
2022-11-07T11:49:48.591Z,10.07
2022-11-07T11:52:18.867Z,2.92
2022-11-07T11:54:46.013Z,4.97
2022-11-07T11:57:26.995Z,6.35
2022-11-07T12:00:16.146Z,8.40
2022-11-07T12:03:11.756Z,7.60
2022-11-07T12:06:05.173Z,5.68
2022-11-07T12:08:42.878Z,7.10
2022-11-07T12:11:31.504Z,4.97
2022-11-07T12:14:12.695Z,9.90
2022-11-07T12:16:57.251Z,4.13
2022-11-07T12:19:30.019Z,5.72
2022-11-07T12:22:09.531Z,7.05
2022-11-07T12:25:23.683Z,8.68
2022-11-07T12:28:02.004Z,4.65
2022-11-07T12:31:03.589Z,4.63
2022-11-07T12:33:45.888Z,6.45
2022-11-07T12:36:34.667Z,5.85
2022-11-07T12:39:27.740Z,4.78
2022-11-07T12:42:07.418Z,7.50
2022-11-07T12:44:47.930Z,6.32
2022-11-07T12:47:33.851Z,4.65
2022-11-07T12:50:26.965Z,9.25
2022-11-07T12:53:10.774Z,2.70
2022-11-07T12:55:44.196Z,6.30
2022-11-07T12:58:31.589Z,5.45
2022-11-07T13:00:59.514Z,7.90
2022-11-07T13:03:38.782Z,8.98
2022-11-07T13:06:23.163Z,6.80
2022-11-07T13:09:14.457Z,4.50
2022-11-07T13:11:55.967Z,4.10
2022-11-07T13:14:28.393Z,5.63
2022-11-07T13:16:57.849Z,3.63
2022-11-07T13:19:37.854Z,5.82
2022-11-07T13:22:26.010Z,9.23
2022-11-07T13:25:13.405Z,5.28
2022-11-07T13:27:44.001Z,6.83
2022-11-07T13:30:21.089Z,4.93
2022-11-07T13:32:51.450Z,8.32
2022-11-07T13:35:23.535Z,6.22
2022-11-07T13:38:16.163Z,7.75
2022-11-07T13:41:03.874Z,5.13
2022-11-07T13:43:43.202Z,11.25
2022-11-07T13:46:19.181Z,6.47
2022-11-07T13:48:57.971Z,6.32
2022-11-07T13:51:46.136Z,5.15
2022-11-07T13:54:35.603Z,8.77
2022-11-07T13:57:13.438Z,6.45
2022-11-07T13:59:47.731Z,7.65
2022-11-07T14:02:24.585Z,7.05
2022-11-07T14:05:15.172Z,7.60
2022-11-07T14:07:47.472Z,7.97
2022-11-07T14:10:22.880Z,5.15
2022-11-07T14:13:01.858Z,5.82
2022-11-07T14:15:29.723Z,6.07
2022-11-07T14:17:56.480Z,8.95
2022-11-07T14:20:22.919Z,7.15
2022-11-07T14:23:00.639Z,5.85
2022-11-07T14:25:32.693Z,6.43
2022-11-07T14:28:00.047Z,7.60
2022-11-07T14:30:29.181Z,6.57
2022-11-07T14:32:58.228Z,10.25
2022-11-07T14:35:27.857Z,5.50
2022-11-07T14:37:54.287Z,7.75
2022-11-07T14:40:20.690Z,9.23
2022-11-07T14:42:48.076Z,12.02
2022-11-07T14:45:33.066Z,6.07
2022-11-07T14:48:05.098Z,7.37
2022-11-07T14:50:31.508Z,8.35
2022-11-07T14:53:06.360Z,5.45
2022-11-07T14:55:45.670Z,9.27
2022-11-07T14:58:12.294Z,9.85
2022-11-07T15:00:39.345Z,6.82
2022-11-07T15:03:05.716Z,9.93
2022-11-07T15:05:38.237Z,4.47
2022-11-07T15:08:04.830Z,6.43
2022-11-07T15:10:34.312Z,10.10
2022-11-07T15:13:04.470Z,6.63
2022-11-07T15:15:36.806Z,6.93
2022-11-07T15:18:05.677Z,4.82
2022-11-07T15:20:34.926Z,5.63
2022-11-07T15:23:25.665Z,5.82
2022-11-07T15:26:01.159Z,9.05
2022-11-07T15:28:28.702Z,2.95
2022-11-07T15:31:00.305Z,5.22
2022-11-07T15:33:31.703Z,7.95
2022-11-07T15:36:01.505Z,8.13
2022-11-07T15:38:29.405Z,8.13
2022-11-07T15:40:55.905Z,6.80
2022-11-07T15:43:22.439Z,9.75
2022-11-07T15:45:51.413Z,7.07
2022-11-07T15:48:21.417Z,9.07
2022-11-07T15:50:49.183Z,7.68
2022-11-07T15:53:19.775Z,6.97
2022-11-07T15:55:47.089Z,4.97
2022-11-07T15:58:15.403Z,9.05
2022-11-07T16:00:42.323Z,4.30
2022-11-07T16:03:16.637Z,7.40
2022-11-07T16:05:45.149Z,6.47
2022-11-07T16:08:19.809Z,6.43
2022-11-07T16:10:53.086Z,10.95
2022-11-07T16:13:19.498Z,10.73
2022-11-07T16:15:48.853Z,7.30
2022-11-07T16:18:21.539Z,7.97
2022-11-07T16:20:49.019Z,6.53
2022-11-07T16:23:16.116Z,9.32
2022-11-07T16:25:45.222Z,6.70
2022-11-07T16:28:23.220Z,3.97
2022-11-07T16:30:50.369Z,7.05
2022-11-07T16:33:17.302Z,5.70
2022-11-07T16:35:43.834Z,5.50
2022-11-07T16:38:15.648Z,6.10
2022-11-07T16:40:42.535Z,4.75
2022-11-07T16:43:09.117Z,7.25
2022-11-07T16:45:37.054Z,7.00
2022-11-07T16:48:05.245Z,4.30
2022-11-07T16:50:32.197Z,9.93
2022-11-07T16:52:58.576Z,6.75
2022-11-07T16:55:24.966Z,6.47
2022-11-07T16:57:51.337Z,4.85
2022-11-07T17:00:18.860Z,5.03
2022-11-07T17:02:45.449Z,8.30
2022-11-07T17:05:12.211Z,6.97
2022-11-07T17:07:38.869Z,4.50
2022-11-07T17:10:05.720Z,12.98
2022-11-07T17:12:32.084Z,7.70
2022-11-07T17:14:58.458Z,10.07
2022-11-07T17:17:24.842Z,6.28
2022-11-07T17:19:51.246Z,8.23
2022-11-07T17:22:17.775Z,5.60
2022-11-07T17:24:45.047Z,5.30
2022-11-07T17:27:24.496Z,7.00
2022-11-07T17:29:51.976Z,7.80
2022-11-07T17:32:18.725Z,9.48
2022-11-07T17:34:45.480Z,8.88
2022-11-07T17:37:17.404Z,10.50
2022-11-07T17:39:45.506Z,7.88
2022-11-07T17:42:13.006Z,6.20
2022-11-07T17:44:39.896Z,8.23
2022-11-07T17:47:06.634Z,7.20
2022-11-07T17:49:33.220Z,9.25
2022-11-07T17:51:59.602Z,8.80
2022-11-07T17:54:29.452Z,6.10
2022-11-07T17:56:56.283Z,6.93
2022-11-07T17:59:23.316Z,11.18
2022-11-07T18:01:49.877Z,6.82
2022-11-07T18:04:16.364Z,6.80
2022-11-07T18:06:43.294Z,10.02
2022-11-07T18:09:14.424Z,13.10
2022-11-07T18:14:07.301Z,16.48
2022-11-07T18:16:37.168Z,10.48
2022-11-07T18:19:05.217Z,6.30
2022-11-07T18:21:31.953Z,8.20
2022-11-07T18:23:58.681Z,7.45
2022-11-07T18:26:33.877Z,8.85
2022-11-07T18:29:03.192Z,13.57
2022-11-07T18:31:29.590Z,6.65
2022-11-07T18:33:58.084Z,6.65
2022-11-07T18:36:25.793Z,6.05
2022-11-07T18:38:52.408Z,8.07
2022-11-07T18:41:21.386Z,12.48
2022-11-07T18:43:48.199Z,6.05
2022-11-07T18:46:17.397Z,6.57
2022-11-07T18:48:43.785Z,6.50
2022-11-07T18:51:16.250Z,7.03
2022-11-07T18:53:43.632Z,11.40
2022-11-07T18:56:12.211Z,5.03
2022-11-07T18:58:41.197Z,11.63
2022-11-07T19:01:10.781Z,8.50
2022-11-07T19:03:37.957Z,7.07
2022-11-07T19:06:05.882Z,10.02
2022-11-07T19:08:35.283Z,9.90
2022-11-07T19:11:04.155Z,8.20
2022-11-07T19:13:30.565Z,9.27
2022-11-07T19:16:01.162Z,9.90
2022-11-07T19:18:27.583Z,10.68
2022-11-07T19:20:56.550Z,5.38
2022-11-07T19:23:23.290Z,6.10
2022-11-07T19:25:50.087Z,5.47
2022-11-07T19:28:16.602Z,12.57
2022-11-07T19:30:43.393Z,5.82
2022-11-07T19:33:11.179Z,9.27
2022-11-07T19:35:39.181Z,10.93
2022-11-07T19:38:09.049Z,8.10
2022-11-07T19:40:38.844Z,11.90
2022-11-07T19:43:05.705Z,9.13
2022-11-07T19:45:32.101Z,8.85
2022-11-07T19:47:58.508Z,6.10
2022-11-07T19:50:24.900Z,6.45
2022-11-07T19:52:51.297Z,10.05
2022-11-07T19:55:17.923Z,10.30
2022-11-07T19:57:44.293Z,12.13
2022-11-07T20:00:11.402Z,7.28
2022-11-07T20:02:43.977Z,8.82
2022-11-07T20:05:11.134Z,6.50
2022-11-07T20:07:38.879Z,8.60
2022-11-07T20:10:06.166Z,7.68
2022-11-07T20:12:32.850Z,6.88
2022-11-07T20:14:59.899Z,10.45
2022-11-07T20:17:26.751Z,10.43
2022-11-07T20:19:53.128Z,8.98
2022-11-07T20:22:19.514Z,5.63
2022-11-07T20:24:45.895Z,5.70
2022-11-07T20:27:12.326Z,7.72
2022-11-07T20:29:38.713Z,7.25
2022-11-07T20:32:05.297Z,12.45
2022-11-07T20:34:31.710Z,10.27
2022-11-07T20:36:58.109Z,7.45
2022-11-07T20:39:24.498Z,10.25
2022-11-07T20:41:50.930Z,6.75
2022-11-07T20:44:17.457Z,7.90
2022-11-07T20:46:45.532Z,8.57
2022-11-07T20:49:14.369Z,9.23
2022-11-07T20:51:41.958Z,8.48
2022-11-07T20:54:12.212Z,11.30
2022-11-07T20:56:39.238Z,11.05
2022-11-07T20:59:06.136Z,13.68
2022-11-07T21:01:36.096Z,9.82
2022-11-07T21:04:03.818Z,8.65
2022-11-07T21:06:30.746Z,6.55
2022-11-07T21:08:57.213Z,4.78
2022-11-07T21:11:24.140Z,9.55
2022-11-07T21:13:53.334Z,11.60
2022-11-07T21:16:24.405Z,10.73
2022-11-07T21:18:52.003Z,7.88
2022-11-07T21:21:24.444Z,8.18
2022-11-07T21:23:51.701Z,7.72
2022-11-07T21:26:21.900Z,5.78
2022-11-07T21:28:48.593Z,6.83
2022-11-07T21:31:18.638Z,6.30
2022-11-07T21:33:46.155Z,6.97
2022-11-07T21:36:16.570Z,12.13
2022-11-07T21:38:44.770Z,10.13
2022-11-07T21:41:11.514Z,8.40
2022-11-07T21:43:38.102Z,10.85
2022-11-07T21:46:31.781Z,8.07
2022-11-07T21:48:58.392Z,7.25
2022-11-07T21:51:30.018Z,9.60
2022-11-07T21:53:57.789Z,3.58
2022-11-07T21:56:30.122Z,6.05
2022-11-07T21:58:59.222Z,8.85
2022-11-07T22:01:26.472Z,7.88
2022-11-07T22:04:10.118Z,8.52
2022-11-07T22:06:40.177Z,7.22
2022-11-07T22:09:08.340Z,8.18
2022-11-07T22:11:34.751Z,6.85
2022-11-07T22:14:01.166Z,11.57
2022-11-07T22:16:27.761Z,10.48
2022-11-07T22:18:54.366Z,7.80
2022-11-07T22:21:22.684Z,9.95
2022-11-07T22:23:49.717Z,4.65
2022-11-07T22:26:21.803Z,11.25
2022-11-07T22:28:49.054Z,9.38
2022-11-07T22:31:18.004Z,10.35
2022-11-07T22:33:46.082Z,5.90
2022-11-07T22:36:14.747Z,6.50
2022-11-07T22:38:41.233Z,6.88
2022-11-07T22:41:11.549Z,9.00
2022-11-07T22:43:37.966Z,9.38
2022-11-07T22:46:07.604Z,11.32
2022-11-07T22:48:34.611Z,10.48
2022-11-07T22:51:05.505Z,13.25
2022-11-07T22:53:32.292Z,15.00
2022-11-07T22:55:58.844Z,10.88
2022-11-07T22:58:25.247Z,5.55
2022-11-07T23:00:51.644Z,6.40
2022-11-07T23:03:18.325Z,7.82
2022-11-07T23:05:44.761Z,11.18
2022-11-07T23:08:11.167Z,11.98
2022-11-07T23:10:37.582Z,10.35
2022-11-07T23:13:04.690Z,6.35
2022-11-07T23:15:31.924Z,9.77
2022-11-07T23:17:58.590Z,8.30
2022-11-07T23:20:43.867Z,11.82
2022-11-07T23:23:10.249Z,5.97
2022-11-07T23:25:36.849Z,7.47
2022-11-07T23:28:05.489Z,12.63
2022-11-07T23:30:31.855Z,8.95
2022-11-07T23:32:58.237Z,8.25
2022-11-07T23:35:24.609Z,7.13
2022-11-07T23:37:50.981Z,14.02
2022-11-07T23:40:17.356Z,6.45
2022-11-07T23:42:43.751Z,11.00
2022-11-07T23:45:29.102Z,10.18
2022-11-07T23:48:18.443Z,5.22
2022-11-07T23:51:03.566Z,10.25
2022-11-07T23:53:55.847Z,8.73
2022-11-07T23:56:24.752Z,7.22
2022-11-07T23:59:10.144Z,7.20
